Time;durP1;ratioP1;P1;durP2;ratioP2;P2;SDS_P1;SDS_P2;PMS_P1;PMS_P2;Temp;Humidity;BMP_temperature;BMP_pressure;BME280_temperature;BME280_humidity;BME280_pressure;Samples;Min_cycle;Max_cycle;Signal;HPM_P1;HPM_P2
2023/03/11 00:00:37;;;;;;;;;;;2.70;99.90;;;;;;4977364;28;19938;-82
2023/03/11 00:03:05;;;;;;;;;;;2.70;99.90;;;;;;4984339;28;19941;-81
2023/03/11 00:05:33;;;;;;;;;;;2.60;99.90;;;;;;4987845;28;19926;-81
2023/03/11 00:08:00;;;;;;;;;;;2.60;99.90;;;;;;4988206;28;19949;-81
2023/03/11 00:10:28;;;;;;;;;;;2.60;99.90;;;;;;4994601;28;19910;-81
2023/03/11 00:12:55;;;;;;;;;;;2.40;99.90;;;;;;4993796;28;19925;-82
2023/03/11 00:15:22;;;;;;;;;;;2.30;99.90;;;;;;4997578;28;19986;-81
2023/03/11 00:17:49;;;;;;;;;;;2.60;99.90;;;;;;5013461;28;19910;-81
2023/03/11 00:20:19;;;;;;;;;;;2.70;99.90;;;;;;5003230;28;19926;-82
2023/03/11 00:22:50;;;;;;;;;;;2.70;99.90;;;;;;5005846;28;19977;-83
2023/03/11 00:25:19;;;;;;;;;;;2.70;99.90;;;;;;5009168;28;19917;-80
2023/03/11 00:27:47;;;;;;;;;;;2.70;99.90;;;;;;5010939;28;19932;-83
2023/03/11 00:30:27;;;;;;;;;;;2.80;99.90;;;;;;4999986;28;19937;-84
2023/03/11 00:32:54;;;;;;;;;;;2.70;99.90;;;;;;4991889;28;19922;-83
2023/03/11 00:35:23;;;;;;;;;;;2.70;99.90;;;;;;4994421;28;19936;-85
2023/03/11 00:37:52;;;;;;;;;;;2.70;99.90;;;;;;4979117;28;19933;-83
2023/03/11 00:40:36;;;;;;;;;;;2.70;99.90;;;;;;4983434;28;20032;-84
2023/03/11 00:43:05;;;;;;;;;;;2.70;99.90;;;;;;4979571;28;19926;-85
2023/03/11 00:45:33;;;;;;;;;;;2.70;99.90;;;;;;4976251;28;19922;-82
2023/03/11 00:47:59;;;;;;;;;;;2.70;99.90;;;;;;4973511;28;19926;-84
2023/03/11 00:50:27;;;;;;;;;;;2.70;99.90;;;;;;4956348;28;19962;-85
2023/03/11 00:52:54;;;;;;;;;;;2.70;99.90;;;;;;4975083;28;19933;-85
2023/03/11 00:55:21;;;;;;;;;;;2.70;99.90;;;;;;4976042;28;20373;-85
2023/03/11 00:57:51;;;;;;;;;;;2.70;99.90;;;;;;4971456;28;19926;-83
2023/03/11 01:00:20;;;;;;;;;;;2.70;99.90;;;;;;4991141;28;20281;-83
2023/03/11 01:02:47;;;;;;;;;;;2.70;99.90;;;;;;5001682;28;19928;-84
2023/03/11 01:05:15;;;;;;;;;;;2.70;99.90;;;;;;4998766;28;19989;-85
2023/03/11 01:07:42;;;;;;;;;;;2.70;99.90;;;;;;4992987;28;20406;-84
2023/03/11 01:10:09;;;;;;;;;;;2.70;99.90;;;;;;4995190;28;19921;-83
2023/03/11 01:12:36;;;;;;;;;;;2.80;99.90;;;;;;4997664;28;19936;-84
2023/03/11 01:15:04;;;;;;;;;;;2.80;99.90;;;;;;5013287;28;19914;-85
2023/03/11 01:17:32;;;;;;;;;;;2.80;99.90;;;;;;4984827;28;19941;-83
2023/03/11 01:19:59;;;;;;;;;;;2.80;99.90;;;;;;4979073;28;19930;-83
2023/03/11 01:22:26;;;;;;;;;;;2.80;99.90;;;;;;5023391;28;19929;-85
2023/03/11 01:24:53;;;;;;;;;;;2.80;99.90;;;;;;4994904;28;19932;-84
2023/03/11 01:27:20;;;;;;;;;;;2.80;99.90;;;;;;4997450;28;19930;-83
2023/03/11 01:29:48;;;;;;;;;;;2.80;99.90;;;;;;4963734;28;19928;-83
2023/03/11 01:32:14;;;;;;;;;;;2.80;99.90;;;;;;4956813;28;20606;-84
2023/03/11 01:34:43;;;;;;;;;;;2.80;99.90;;;;;;4975403;28;19933;-84
2023/03/11 01:37:09;;;;;;;;;;;2.80;99.90;;;;;;4989026;28;19930;-84
2023/03/11 01:39:36;;;;;;;;;;;2.90;99.90;;;;;;4988621;28;19932;-83
2023/03/11 01:42:03;;;;;;;;;;;2.90;99.90;;;;;;4967323;28;19928;-83
2023/03/11 01:44:30;;;;;;;;;;;2.90;99.90;;;;;;4981223;28;19937;-82
2023/03/11 01:47:15;;;;;;;;;;;2.90;99.90;;;;;;5002397;28;19928;-84
2023/03/11 01:49:43;;;;;;;;;;;2.80;99.90;;;;;;4991533;28;20483;-84
2023/03/11 01:52:10;;;;;;;;;;;2.80;99.90;;;;;;4981423;28;19930;-84
2023/03/11 01:54:45;;;;;;;;;;;2.70;99.90;;;;;;4960576;28;19922;-85
2023/03/11 01:57:13;;;;;;;;;;;2.70;99.90;;;;;;4970043;28;20009;-84
2023/03/11 01:59:41;;;;;;;;;;;2.70;99.90;;;;;;4988367;28;19930;-84
2023/03/11 02:02:11;;;;;;;;;;;2.60;99.90;;;;;;4968142;28;19926;-85
2023/03/11 02:04:39;;;;;;;;;;;2.50;99.90;;;;;;4969615;28;19929;-85
2023/03/11 02:07:08;;;;;;;;;;;2.40;99.90;;;;;;4971561;28;19977;-85
2023/03/11 02:09:36;;;;;;;;;;;2.20;99.90;;;;;;4988688;28;19922;-85
2023/03/11 02:12:02;;;;;;;;;;;2.20;99.90;;;;;;4993391;28;19936;-84
2023/03/11 02:14:30;;;;;;;;;;;2.10;99.90;;;;;;4978727;28;19929;-84
2023/03/11 02:16:57;;;;;;;;;;;2.00;99.90;;;;;;4985692;28;19922;-84
2023/03/11 02:19:30;;;;;;;;;;;1.90;99.90;;;;;;4980600;28;20377;-84
2023/03/11 02:21:57;;;;;;;;;;;1.80;99.90;;;;;;4967794;28;19926;-82
2023/03/11 02:24:30;;;;;;;;;;;1.70;99.90;;;;;;4990939;28;19935;-82
2023/03/11 02:26:59;;;;;;;;;;;1.70;99.90;;;;;;4969135;28;20004;-83
2023/03/11 02:29:27;;;;;;;;;;;1.70;99.90;;;;;;4992245;28;19930;-82
2023/03/11 02:31:54;;;;;;;;;;;1.50;99.90;;;;;;4986693;28;19932;-83
2023/03/11 02:34:24;;;;;;;;;;;1.50;99.90;;;;;;4970054;28;19941;-83
2023/03/11 02:36:51;;;;;;;;;;;1.50;99.90;;;;;;4985997;28;19925;-82
2023/03/11 02:39:29;;;;;;;;;;;1.40;99.90;;;;;;4976518;28;20048;-81
2023/03/11 02:41:56;;;;;;;;;;;1.40;99.90;;;;;;4977986;28;19922;-83
2023/03/11 02:44:25;;;;;;;;;;;3.40;99.90;;;;;;4988803;28;20423;-82
2023/03/11 02:46:52;;;;;;;;;;;1.30;99.90;;;;;;4991492;28;19928;-82
2023/03/11 02:49:20;;;;;;;;;;;1.30;99.90;;;;;;4977793;28;19926;-82
2023/03/11 02:51:47;;;;;;;;;;;1.30;99.90;;;;;;4967371;28;19964;-82
2023/03/11 02:54:14;;;;;;;;;;;;;;;;;;4974223;28;19932;-82
2023/03/11 02:56:41;;;;;;;;;;;1.20;99.90;;;;;;4974117;28;19949;-82
2023/03/11 02:59:08;;;;;;;;;;;1.20;99.90;;;;;;4967204;28;19922;-82
2023/03/11 03:01:37;;;;;;;;;;;1.10;99.90;;;;;;4970172;28;20009;-82
2023/03/11 03:04:04;;;;;;;;;;;1.10;99.90;;;;;;4968485;28;19975;-83
2023/03/11 03:06:33;;;;;;;;;;;1.10;99.90;;;;;;4972197;28;19929;-82
2023/03/11 03:08:59;;;;;;;;;;;1.10;99.90;;;;;;4995958;28;19910;-81
2023/03/11 03:11:26;;;;;;;;;;;1.00;99.90;;;;;;4977557;28;19922;-81
2023/03/11 03:13:53;;;;;;;;;;;1.00;99.90;;;;;;4999139;28;19985;-81
2023/03/11 03:16:20;;;;;;;;;;;1.00;99.90;;;;;;4972794;28;20422;-81
2023/03/11 03:18:49;;;;;;;;;;;1.00;99.90;;;;;;4985309;28;20312;-81
2023/03/11 03:21:16;;;;;;;;;;;1.00;99.90;;;;;;4991551;28;20403;-82
2023/03/11 03:23:42;;;;;;;;;;;1.00;99.90;;;;;;4964242;28;19926;-82
2023/03/11 03:26:12;;;;;;;;;;;0.90;99.90;;;;;;4959754;28;19965;-82
2023/03/11 03:28:39;;;;;;;;;;;1.00;99.90;;;;;;4979497;28;19930;-82
2023/03/11 03:31:08;;;;;;;;;;;0.90;99.90;;;;;;4976157;28;19957;-82
2023/03/11 03:33:36;;;;;;;;;;;5.00;99.90;;;;;;4968582;28;19929;-82
2023/03/11 03:36:07;;;;;;;;;;;1.00;99.90;;;;;;4971457;28;19930;-82
2023/03/11 03:38:39;;;;;;;;;;;1.00;99.90;;;;;;4990158;28;19958;-82
2023/03/11 03:41:06;;;;;;;;;;;1.00;99.90;;;;;;4974706;28;19923;-82
2023/03/11 03:43:35;;;;;;;;;;;1.00;99.90;;;;;;4995669;28;20013;-84
2023/03/11 03:46:08;;;;;;;;;;;1.00;99.90;;;;;;4980916;28;20867;-83
2023/03/11 03:48:40;;;;;;;;;;;1.00;99.90;;;;;;4960275;28;19974;-83
2023/03/11 03:51:09;;;;;;;;;;;0.90;99.90;;;;;;4984592;28;19961;-83
2023/03/11 03:53:41;;;;;;;;;;;0.90;99.90;;;;;;4977506;28;19926;-83
2023/03/11 03:56:09;;;;;;;;;;;1.00;99.90;;;;;;4968927;28;19927;-83
2023/03/11 03:58:36;;;;;;;;;;;1.00;99.90;;;;;;4989720;28;19922;-80
2023/03/11 04:01:03;;;;;;;;;;;1.20;99.90;;;;;;4973489;28;19968;-84
2023/03/11 04:03:31;;;;;;;;;;;0.90;99.90;;;;;;5009599;28;19957;-84
2023/03/11 04:06:05;;;;;;;;;;;0.90;99.90;;;;;;4979033;28;19931;-82
2023/03/11 04:08:34;;;;;;;;;;;0.90;99.90;;;;;;4969876;28;20016;-83
2023/03/11 04:11:01;;;;;;;;;;;0.90;99.90;;;;;;4989037;28;20088;-83
2023/03/11 04:13:30;;;;;;;;;;;0.90;99.90;;;;;;4983246;28;19940;-83
2023/03/11 04:15:57;;;;;;;;;;;0.90;99.90;;;;;;5008296;28;20172;-84
2023/03/11 04:18:27;;;;;;;;;;;0.90;99.90;;;;;;4989150;28;19922;-83
2023/03/11 04:20:54;;;;;;;;;;;0.90;99.90;;;;;;4983229;28;19992;-82
2023/03/11 04:23:21;;;;;;;;;;;0.80;99.90;;;;;;4986371;28;19961;-82
2023/03/11 04:25:49;;;;;;;;;;;0.80;99.90;;;;;;4988205;28;19922;-81
2023/03/11 04:28:16;;;;;;;;;;;0.80;99.90;;;;;;4976090;28;19933;-81
2023/03/11 04:30:44;;;;;;;;;;;0.80;99.90;;;;;;4981915;28;19922;-81
2023/03/11 04:33:11;;;;;;;;;;;0.80;99.90;;;;;;4997180;28;20016;-81
2023/03/11 04:35:38;;;;;;;;;;;0.80;99.90;;;;;;4979757;28;19922;-83
2023/03/11 04:38:05;;;;;;;;;;;0.70;99.90;;;;;;4968135;28;19933;-82
2023/03/11 04:40:33;;;;;;;;;;;0.70;99.90;;;;;;4981327;28;19921;-82
2023/03/11 04:43:01;;;;;;;;;;;0.60;99.90;;;;;;4984964;28;19910;-81
2023/03/11 04:45:28;;;;;;;;;;;0.70;99.90;;;;;;4986204;28;20448;-82
2023/03/11 04:47:57;;;;;;;;;;;0.60;99.90;;;;;;4993826;28;19977;-81
2023/03/11 04:50:24;;;;;;;;;;;0.60;99.90;;;;;;4993502;28;19926;-81
2023/03/11 04:52:51;;;;;;;;;;;0.60;99.90;;;;;;4986516;28;19934;-81
2023/03/11 04:55:18;;;;;;;;;;;0.60;99.90;;;;;;4977447;28;19921;-81
2023/03/11 04:57:46;;;;;;;;;;;0.60;99.90;;;;;;4992862;28;19922;-82
2023/03/11 05:00:18;;;;;;;;;;;0.50;99.90;;;;;;4990918;28;19985;-82
2023/03/11 05:02:47;;;;;;;;;;;0.60;99.90;;;;;;4983755;28;19923;-82
2023/03/11 05:05:15;;;;;;;;;;;0.60;99.90;;;;;;4986621;28;20016;-82
2023/03/11 05:07:42;;;;;;;;;;;0.80;99.90;;;;;;4984034;28;20021;-83
2023/03/11 05:10:10;;;;;;;;;;;0.80;99.90;;;;;;4993132;28;20465;-83
2023/03/11 05:12:38;;;;;;;;;;;0.90;99.90;;;;;;4972903;28;19922;-83
2023/03/11 05:15:06;;;;;;;;;;;0.90;99.90;;;;;;4989011;28;19926;-82
2023/03/11 05:17:34;;;;;;;;;;;1.00;99.90;;;;;;4954670;29;19932;-83
2023/03/11 05:20:05;;;;;;;;;;;1.10;99.90;;;;;;4982033;28;19926;-82
2023/03/11 05:22:32;;;;;;;;;;;1.20;99.90;;;;;;4953601;28;19927;-82
2023/03/11 05:24:59;;;;;;;;;;;1.20;99.90;;;;;;4955227;29;19934;-82
2023/03/11 05:27:26;;;;;;;;;;;1.20;99.90;;;;;;4980714;28;19977;-83
2023/03/11 05:29:56;;;;;;;;;;;1.20;99.90;;;;;;4988772;28;19948;-82
2023/03/11 05:32:24;;;;;;;;;;;1.10;99.90;;;;;;4982955;28;19922;-80
2023/03/11 05:34:54;;;;;;;;;;;1.10;99.90;;;;;;4976829;28;19926;-82
2023/03/11 05:37:20;;;;;;;;;;;1.10;99.90;;;;;;4989301;28;20009;-82
2023/03/11 05:39:48;;;;;;;;;;;1.10;99.90;;;;;;4989602;28;19992;-82
2023/03/11 05:42:16;;;;;;;;;;;1.10;99.90;;;;;;4974694;28;19993;-82
2023/03/11 05:44:43;;;;;;;;;;;1.10;99.90;;;;;;4995953;28;19925;-82
2023/03/11 05:47:10;;;;;;;;;;;1.10;99.90;;;;;;4982986;28;19926;-82
2023/03/11 05:49:37;;;;;;;;;;;1.10;99.90;;;;;;4993225;28;19922;-82
2023/03/11 05:52:06;;;;;;;;;;;1.10;99.90;;;;;;5005305;28;20286;-82
2023/03/11 05:54:34;;;;;;;;;;;1.10;99.90;;;;;;4996079;28;20001;-82
2023/03/11 05:57:01;;;;;;;;;;;1.10;99.90;;;;;;5004731;28;19932;-81
2023/03/11 05:59:28;;;;;;;;;;;1.10;99.90;;;;;;4995815;28;19926;-81
2023/03/11 06:02:00;;;;;;;;;;;1.10;99.90;;;;;;4993843;28;19922;-81
2023/03/11 06:04:27;;;;;;;;;;;1.10;99.90;;;;;;4993445;28;20001;-81
2023/03/11 06:06:54;;;;;;;;;;;1.10;99.90;;;;;;4982839;28;19941;-81
2023/03/11 06:09:24;;;;;;;;;;;1.00;99.90;;;;;;4994636;28;19930;-81
2023/03/11 06:11:53;;;;;;;;;;;2.40;99.90;;;;;;4988482;28;19965;-81
2023/03/11 06:14:22;;;;;;;;;;;1.00;99.90;;;;;;4985801;28;20410;-81
2023/03/11 06:16:50;;;;;;;;;;;1.00;99.90;;;;;;4985741;28;19930;-80
2023/03/11 06:19:20;;;;;;;;;;;0.90;99.90;;;;;;4986165;28;19922;-81
2023/03/11 06:21:49;;;;;;;;;;;0.90;99.90;;;;;;5003401;28;19954;-82
2023/03/11 06:24:17;;;;;;;;;;;0.90;99.90;;;;;;4994608;28;19984;-82
2023/03/11 06:26:45;;;;;;;;;;;1.00;99.90;;;;;;4981755;28;19950;-79
2023/03/11 06:29:14;;;;;;;;;;;1.00;99.90;;;;;;4984143;28;19929;-79
2023/03/11 06:31:42;;;;;;;;;;;1.10;99.90;;;;;;5003287;28;19930;-81
2023/03/11 06:34:12;;;;;;;;;;;1.10;99.90;;;;;;4998317;28;19990;-81
2023/03/11 06:36:38;;;;;;;;;;;1.00;99.90;;;;;;4996373;28;19938;-82
2023/03/11 06:39:05;;;;;;;;;;;1.00;99.90;;;;;;4992882;28;19922;-81
2023/03/11 06:41:33;;;;;;;;;;;1.80;99.90;;;;;;4988039;28;19968;-80
2023/03/11 06:44:03;;;;;;;;;;;0.90;99.90;;;;;;4981230;28;19956;-81
2023/03/11 06:46:30;;;;;;;;;;;0.90;99.90;;;;;;4996901;28;19953;-80
2023/03/11 06:48:57;;;;;;;;;;;0.90;99.90;;;;;;4971553;28;19935;-81
2023/03/11 06:51:24;;;;;;;;;;;1.10;99.90;;;;;;4979256;28;20013;-81
2023/03/11 06:53:53;;;;;;;;;;;1.20;99.90;;;;;;4977076;28;20261;-81
2023/03/11 06:56:22;;;;;;;;;;;1.60;99.90;;;;;;4970313;28;20620;-80
2023/03/11 06:58:53;;;;;;;;;;;1.40;99.90;;;;;;4972597;28;19932;-82
2023/03/11 07:01:23;;;;;;;;;;;1.80;99.90;;;;;;4983380;28;19926;-82
2023/03/11 07:03:51;;;;;;;;;;;2.50;99.90;;;;;;4976734;28;20320;-82
2023/03/11 07:06:20;;;;;;;;;;;3.50;99.90;;;;;;4960606;28;19927;-80
2023/03/11 07:08:48;;;;;;;;;;;4.60;99.90;;;;;;4981999;28;19926;-80
2023/03/11 07:11:16;;;;;;;;;;;5.90;99.90;;;;;;4964703;28;20033;-81
2023/03/11 07:13:43;;;;;;;;;;;7.30;99.90;;;;;;4987583;28;19957;-82
2023/03/11 07:16:11;;;;;;;;;;;8.00;99.90;;;;;;4968375;28;19930;-82
2023/03/11 07:18:42;;;;;;;;;;;8.80;99.90;;;;;;4979512;28;19961;-82
2023/03/11 07:21:09;;;;;;;;;;;9.20;99.90;;;;;;4974237;28;20465;-83
2023/03/11 07:23:36;;;;;;;;;;;9.00;99.90;;;;;;4972092;28;19933;-82
2023/03/11 07:26:03;;;;;;;;;;;9.70;99.90;;;;;;4976406;28;19925;-84
2023/03/11 07:28:30;;;;;;;;;;;10.10;99.90;;;;;;4983755;28;19929;-83
2023/03/11 07:31:00;;;;;;;;;;;10.10;99.90;;;;;;4992128;28;19926;-84
2023/03/11 07:33:27;;;;;;;;;;;10.40;99.90;;;;;;4970421;28;19926;-84
2023/03/11 07:35:59;;;;;;;;;;;10.30;99.90;;;;;;4976635;28;19929;-82
2023/03/11 07:38:28;;;;;;;;;;;10.20;99.90;;;;;;4995793;28;19930;-83
2023/03/11 07:40:58;;;;;;;;;;;10.40;99.90;;;;;;4977210;28;19971;-83
2023/03/11 07:43:24;;;;;;;;;;;10.50;99.90;;;;;;4988329;28;20389;-82
2023/03/11 07:45:51;;;;;;;;;;;11.20;99.90;;;;;;4986955;28;19958;-83
2023/03/11 07:50:59;;;;;;;;;;;11.20;99.90;;;;;;5011356;28;19929;-78
2023/03/11 07:53:26;;;;;;;;;;;11.10;99.90;;;;;;4996877;28;20046;-77
2023/03/11 07:55:56;;;;;;;;;;;11.10;99.90;;;;;;5017704;28;19933;-77
2023/03/11 08:01:05;;;;;;;;;;;11.70;99.90;;;;;;5194983;22;19929;-77
2023/03/11 08:03:32;;;;;;;;;;;11.90;99.90;;;;;;5007393;28;20301;-77
2023/03/11 08:05:59;;;;;;;;;;;12.30;99.90;;;;;;5006886;28;19930;-77
2023/03/11 08:08:26;;;;;;;;;;;12.60;99.90;;;;;;5006349;28;19937;-77
2023/03/11 08:10:52;;;;;;;;;;;12.60;99.90;;;;;;4999308;28;20106;-78
2023/03/11 08:13:21;;;;;;;;;;;12.40;99.90;;;;;;5001740;28;19956;-79
2023/03/11 08:15:47;;;;;;;;;;;12.50;99.90;;;;;;4997482;28;19934;-77
2023/03/11 08:18:14;;;;;;;;;;;12.60;99.90;;;;;;4993556;28;20419;-77
2023/03/11 08:20:41;;;;;;;;;;;12.80;99.90;;;;;;4997543;28;19929;-77
2023/03/11 08:23:08;;;;;;;;;;;12.70;99.90;;;;;;4997782;28;19929;-77
2023/03/11 08:25:37;;;;;;;;;;;12.40;99.90;;;;;;4997990;28;20370;-77
2023/03/11 08:28:06;;;;;;;;;;;12.30;99.90;;;;;;5008701;28;19937;-78
2023/03/11 08:30:34;;;;;;;;;;;12.30;99.90;;;;;;5006056;28;19987;-78
2023/03/11 08:33:01;;;;;;;;;;;12.40;99.90;;;;;;5004356;28;19921;-77
2023/03/11 08:35:28;;;;;;;;;;;12.40;99.90;;;;;;4994724;28;20458;-78
2023/03/11 08:37:55;;;;;;;;;;;12.30;99.90;;;;;;4994391;28;19941;-77
2023/03/11 08:40:22;;;;;;;;;;;12.30;99.90;;;;;;4996322;28;19932;-78
2023/03/11 08:42:48;;;;;;;;;;;12.20;99.90;;;;;;4989912;28;19937;-78
2023/03/11 08:45:15;;;;;;;;;;;12.40;99.90;;;;;;4995533;28;19929;-78
2023/03/11 08:47:43;;;;;;;;;;;12.60;99.90;;;;;;4994696;28;19929;-78
2023/03/11 08:50:12;;;;;;;;;;;12.70;99.90;;;;;;4994270;28;19933;-77
2023/03/11 08:52:39;;;;;;;;;;;12.50;99.90;;;;;;4997115;28;19929;-77
2023/03/11 08:55:07;;;;;;;;;;;12.30;99.90;;;;;;4992818;28;19929;-77
2023/03/11 08:57:34;;;;;;;;;;;12.30;99.90;;;;;;4983080;28;19929;-77
2023/03/11 09:00:01;;;;;;;;;;;12.30;99.90;;;;;;4984016;28;19936;-78
2023/03/11 09:02:27;;;;;;;;;;;12.10;99.90;;;;;;4993207;28;19929;-77
2023/03/11 09:04:56;;;;;;;;;;;11.90;99.90;;;;;;4991007;28;19967;-77
2023/03/11 09:07:22;;;;;;;;;;;11.80;99.90;;;;;;4992936;28;19929;-77
2023/03/11 09:09:49;;;;;;;;;;;11.60;99.90;;;;;;4987846;28;19933;-77
2023/03/11 09:12:16;;;;;;;;;;;11.70;99.90;;;;;;4986734;28;20379;-76
2023/03/11 09:14:43;;;;;;;;;;;11.70;99.90;;;;;;4997388;28;20029;-77
2023/03/11 09:17:10;;;;;;;;;;;11.60;99.90;;;;;;4985091;28;19929;-77
2023/03/11 09:19:37;;;;;;;;;;;11.50;99.90;;;;;;4978220;28;19925;-77
2023/03/11 09:22:06;;;;;;;;;;;11.50;99.90;;;;;;4979252;28;19930;-77
2023/03/11 09:24:33;;;;;;;;;;;11.50;99.90;;;;;;4978506;28;19929;-77
2023/03/11 09:27:00;;;;;;;;;;;11.30;99.90;;;;;;4984689;28;20446;-78
2023/03/11 09:29:26;;;;;;;;;;;11.10;99.90;;;;;;4976761;28;19932;-77
2023/03/11 09:31:53;;;;;;;;;;;10.70;99.90;;;;;;4978729;28;19925;-77
2023/03/11 09:34:20;;;;;;;;;;;10.40;99.90;;;;;;4977512;28;20350;-77
2023/03/11 09:36:47;;;;;;;;;;;10.00;99.90;;;;;;4973462;28;19929;-76
2023/03/11 09:39:15;;;;;;;;;;;9.50;99.90;;;;;;4975608;28;19929;-76
2023/03/11 09:41:43;;;;;;;;;;;9.60;99.90;;;;;;4989750;28;19929;-77
2023/03/11 09:44:12;;;;;;;;;;;9.20;99.90;;;;;;4988592;28;19932;-77
2023/03/11 09:47:03;;;;;;;;;;;9.20;99.90;;;;;;4977835;28;19933;-77
2023/03/11 09:49:34;;;;;;;;;;;9.20;99.90;;;;;;4971367;28;19945;-77
2023/03/11 09:52:05;;;;;;;;;;;9.10;99.90;;;;;;4973867;28;20476;-76
2023/03/11 09:54:36;;;;;;;;;;;9.30;99.90;;;;;;4960906;28;21435;-76
2023/03/11 09:57:04;;;;;;;;;;;9.30;99.90;;;;;;4965668;28;19972;-77
2023/03/11 09:59:31;;;;;;;;;;;9.00;99.90;;;;;;4976260;28;19929;-76
2023/03/11 10:01:59;;;;;;;;;;;8.90;99.90;;;;;;4958823;28;19929;-77
2023/03/11 10:04:29;;;;;;;;;;;8.60;99.90;;;;;;4975200;28;20348;-77
2023/03/11 10:06:55;;;;;;;;;;;8.40;99.90;;;;;;4966698;28;19929;-77
2023/03/11 10:09:30;;;;;;;;;;;8.10;99.90;;;;;;4959150;28;19959;-78
2023/03/11 10:12:13;;;;;;;;;;;8.00;99.90;;;;;;4956348;28;21374;-78
2023/03/11 10:15:01;;;;;;;;;;;7.90;99.90;;;;;;4972037;28;19996;-77
2023/03/11 10:17:36;;;;;;;;;;;7.90;99.90;;;;;;4938993;28;19929;-79
2023/03/11 10:20:05;;;;;;;;;;;8.00;99.90;;;;;;4987802;28;20575;-76
2023/03/11 10:22:37;;;;;;;;;;;8.00;99.90;;;;;;4988877;28;19925;-77
2023/03/11 10:25:09;;;;;;;;;;;7.90;99.90;;;;;;4995042;28;19975;-78
2023/03/11 10:27:40;;;;;;;;;;;7.90;99.90;;;;;;4996497;28;19930;-78
2023/03/11 10:30:10;;;;;;;;;;;8.00;99.90;;;;;;4995251;28;19922;-77
2023/03/11 10:32:39;;;;;;;;;;;8.20;99.90;;;;;;4999466;28;19953;-77
2023/03/11 10:35:11;;;;;;;;;;;8.50;99.90;;;;;;5008777;28;19929;-78
2023/03/11 10:37:38;;;;;;;;;;;8.70;99.90;;;;;;5000754;28;19922;-77
2023/03/11 10:40:14;;;;;;;;;;;8.90;99.90;;;;;;4994480;28;19936;-77
2023/03/11 10:42:44;;;;;;;;;;;9.00;99.90;;;;;;4997949;28;19964;-77
2023/03/11 10:45:12;;;;;;;;;;;9.20;99.90;;;;;;4997107;28;19964;-77
2023/03/11 10:47:39;;;;;;;;;;;9.20;99.90;;;;;;4997644;28;19922;-76
2023/03/11 10:50:06;;;;;;;;;;;9.40;99.90;;;;;;4997394;28;19925;-77
2023/03/11 10:52:41;;;;;;;;;;;9.50;99.90;;;;;;4997862;28;19921;-78
2023/03/11 10:55:08;;;;;;;;;;;9.70;99.90;;;;;;5002986;28;20318;-77
2023/03/11 10:57:35;;;;;;;;;;;9.90;99.90;;;;;;4987716;28;19933;-77
2023/03/11 11:00:08;;;;;;;;;;;10.10;99.90;;;;;;4993654;28;19926;-77
2023/03/11 11:02:39;;;;;;;;;;;10.30;99.90;;;;;;4996062;28;20020;-77
2023/03/11 11:05:08;;;;;;;;;;;10.30;99.90;;;;;;4992901;28;20024;-77
2023/03/11 11:07:36;;;;;;;;;;;10.20;99.90;;;;;;5005224;28;19933;-76
2023/03/11 11:10:17;;;;;;;;;;;10.80;99.90;;;;;;5002070;28;19925;-78
2023/03/11 11:12:54;;;;;;;;;;;10.20;99.90;;;;;;4994854;28;19928;-77
2023/03/11 11:15:23;;;;;;;;;;;10.30;99.90;;;;;;4999530;28;20048;-77
2023/03/11 11:17:51;;;;;;;;;;;10.30;99.90;;;;;;4994246;28;19929;-78
2023/03/11 11:20:19;;;;;;;;;;;10.30;99.90;;;;;;5008209;28;20308;-78
2023/03/11 11:22:50;;;;;;;;;;;10.30;99.90;;;;;;5008609;28;19925;-78
2023/03/11 11:25:24;;;;;;;;;;;10.00;99.90;;;;;;5009587;28;20429;-77
2023/03/11 11:27:55;;;;;;;;;;;10.00;99.90;;;;;;5010092;28;20389;-77
2023/03/11 11:30:24;;;;;;;;;;;9.70;99.90;;;;;;5007489;28;19964;-76
2023/03/11 11:32:52;;;;;;;;;;;9.60;99.90;;;;;;5005979;28;19925;-77
2023/03/11 11:35:20;;;;;;;;;;;9.60;99.90;;;;;;5007910;28;19930;-77
2023/03/11 11:37:48;;;;;;;;;;;9.80;99.90;;;;;;5007744;28;20016;-77
2023/03/11 11:40:22;;;;;;;;;;;10.10;99.90;;;;;;5006211;28;19925;-77
2023/03/11 11:42:51;;;;;;;;;;;10.40;99.90;;;;;;5008439;28;19929;-77
2023/03/11 11:45:22;;;;;;;;;;;10.50;99.90;;;;;;5008216;28;20008;-77
2023/03/11 11:47:52;;;;;;;;;;;10.60;99.90;;;;;;5018332;28;20411;-77
2023/03/11 11:50:24;;;;;;;;;;;10.80;99.90;;;;;;5006118;28;19925;-77
2023/03/11 11:52:53;;;;;;;;;;;11.00;99.90;;;;;;5010047;28;20016;-77
2023/03/11 11:55:22;;;;;;;;;;;11.20;99.90;;;;;;5006241;28;19931;-77
2023/03/11 11:57:50;;;;;;;;;;;11.40;99.90;;;;;;5007605;28;19925;-77
2023/03/11 12:00:19;;;;;;;;;;;11.60;99.90;;;;;;5008246;28;19935;-77
2023/03/11 12:02:49;;;;;;;;;;;11.70;99.90;;;;;;5007022;28;19953;-77
2023/03/11 12:05:23;;;;;;;;;;;12.00;99.90;;;;;;4995512;28;20032;-77
2023/03/11 12:08:06;;;;;;;;;;;11.90;99.90;;;;;;5005678;28;20457;-77
2023/03/11 12:10:33;;;;;;;;;;;12.10;99.90;;;;;;5003790;28;20568;-78
2023/03/11 12:13:13;;;;;;;;;;;12.10;99.90;;;;;;5007483;28;19957;-78
2023/03/11 12:15:42;;;;;;;;;;;12.00;99.90;;;;;;5002815;28;19925;-78
2023/03/11 12:18:16;;;;;;;;;;;11.60;99.90;;;;;;5007419;28;19928;-78
2023/03/11 12:20:46;;;;;;;;;;;11.50;99.90;;;;;;5006625;28;19928;-77
2023/03/11 12:23:17;;;;;;;;;;;11.30;99.90;;;;;;5008055;28;19921;-77
2023/03/11 12:25:52;;;;;;;;;;;11.00;99.90;;;;;;5005025;28;19925;-77
2023/03/11 12:28:22;;;;;;;;;;;10.70;99.90;;;;;;5004087;28;20486;-77
2023/03/11 12:30:51;;;;;;;;;;;10.60;99.90;;;;;;5013003;28;19929;-77
2023/03/11 12:33:24;;;;;;;;;;;10.30;99.90;;;;;;5006156;28;19941;-77
2023/03/11 12:35:55;;;;;;;;;;;10.20;99.90;;;;;;5006775;28;20384;-78
2023/03/11 12:38:26;;;;;;;;;;;10.60;99.90;;;;;;5009045;28;20041;-77
2023/03/11 12:40:58;;;;;;;;;;;9.80;99.90;;;;;;5005605;28;19925;-77
2023/03/11 12:43:43;;;;;;;;;;;9.70;99.90;;;;;;5008605;28;19964;-77
2023/03/11 12:46:10;;;;;;;;;;;9.50;99.90;;;;;;5012782;28;19944;-78
2023/03/11 12:48:42;;;;;;;;;;;9.60;99.90;;;;;;4996469;28;19929;-77
2023/03/11 12:51:38;;;;;;;;;;;9.50;99.90;;;;;;5009747;28;20335;-77
2023/03/11 12:54:19;;;;;;;;;;;9.20;99.90;;;;;;5002636;28;19925;-77
2023/03/11 12:56:50;;;;;;;;;;;8.80;99.90;;;;;;5009131;28;19925;-77
2023/03/11 12:59:37;;;;;;;;;;;8.80;99.90;;;;;;5007877;28;19925;-77
2023/03/11 13:02:11;;;;;;;;;;;9.10;99.90;;;;;;5012863;28;20366;-78
2023/03/11 13:04:45;;;;;;;;;;;9.30;99.90;;;;;;5002640;28;19929;-77
2023/03/11 13:07:32;;;;;;;;;;;9.60;99.90;;;;;;5005474;28;19921;-77
2023/03/11 13:10:00;;;;;;;;;;;9.70;99.90;;;;;;5004965;28;20013;-77
2023/03/11 13:12:39;;;;;;;;;;;9.70;99.90;;;;;;5006263;28;19925;-77
2023/03/11 13:15:30;;;;;;;;;;;9.90;99.90;;;;;;5007762;28;20064;-77
2023/03/11 13:17:57;;;;;;;;;;;;;;;;;;5007455;28;19948;-77
2023/03/11 13:20:44;;;;;;;;;;;10.30;99.90;;;;;;5005395;28;20623;-78
2023/03/11 13:23:22;;;;;;;;;;;10.40;99.90;;;;;;5010661;28;19925;-78
2023/03/11 13:26:03;;;;;;;;;;;10.30;99.90;;;;;;5017045;28;20020;-77
2023/03/11 13:28:47;;;;;;;;;;;10.30;99.90;;;;;;5013674;28;20007;-77
2023/03/11 13:31:19;;;;;;;;;;;10.20;99.90;;;;;;5009419;28;19933;-77
2023/03/11 13:33:49;;;;;;;;;;;10.00;99.90;;;;;;5007553;28;19928;-76
2023/03/11 13:36:21;;;;;;;;;;;10.10;99.90;;;;;;5010560;28;19968;-76
2023/03/11 13:39:05;;;;;;;;;;;10.20;99.90;;;;;;5012058;28;20353;-76
2023/03/11 13:41:34;;;;;;;;;;;10.30;99.90;;;;;;5009582;28;20326;-76
2023/03/11 13:44:10;;;;;;;;;;;10.20;99.90;;;;;;5009357;28;19948;-77
2023/03/11 13:46:38;;;;;;;;;;;9.80;99.90;;;;;;5008284;28;19930;-76
2023/03/11 13:49:06;;;;;;;;;;;9.40;99.90;;;;;;5013276;28;19965;-77
2023/03/11 13:51:36;;;;;;;;;;;9.30;99.90;;;;;;5014010;28;19925;-77
2023/03/11 13:54:05;;;;;;;;;;;9.40;99.90;;;;;;5015082;28;20424;-78
2023/03/11 13:56:32;;;;;;;;;;;9.40;99.90;;;;;;5006520;28;19931;-76
2023/03/11 13:58:59;;;;;;;;;;;;;;;;;;5523162;22;19916;-77
2023/03/11 14:01:26;;;;;;;;;;;9.50;99.90;;;;;;4987354;28;19936;-77
2023/03/11 14:03:53;;;;;;;;;;;9.60;99.90;;;;;;5009211;28;19982;-77
2023/03/11 14:06:20;;;;;;;;;;;9.60;99.90;;;;;;5009627;28;19929;-77
2023/03/11 14:08:52;;;;;;;;;;;9.70;99.90;;;;;;5007130;28;19921;-77
2023/03/11 14:11:25;;;;;;;;;;;10.20;99.90;;;;;;5012722;28;20350;-76
2023/03/11 14:13:52;;;;;;;;;;;9.60;99.90;;;;;;5017799;28;19932;-77
2023/03/11 14:16:21;;;;;;;;;;;9.60;99.90;;;;;;4989989;28;19929;-77
2023/03/11 14:18:49;;;;;;;;;;;9.80;99.90;;;;;;4991135;28;20359;-77
2023/03/11 14:21:16;;;;;;;;;;;9.20;99.90;;;;;;4991601;28;19929;-77
2023/03/11 14:23:44;;;;;;;;;;;9.90;99.90;;;;;;4987852;28;19994;-77
2023/03/11 14:26:13;;;;;;;;;;;9.90;99.90;;;;;;5011645;28;19941;-77
2023/03/11 14:28:43;;;;;;;;;;;9.90;99.90;;;;;;4988239;28;19930;-77
2023/03/11 14:31:21;;;;;;;;;;;9.80;99.90;;;;;;4994824;28;20292;-77
2023/03/11 14:33:53;;;;;;;;;;;9.80;99.90;;;;;;4984527;28;19932;-77
2023/03/11 14:36:21;;;;;;;;;;;9.70;99.90;;;;;;4988446;28;19926;-77
2023/03/11 14:38:47;;;;;;;;;;;9.60;99.90;;;;;;5002688;28;19956;-77
2023/03/11 14:41:15;;;;;;;;;;;9.50;99.90;;;;;;4983189;28;19925;-77
2023/03/11 14:43:45;;;;;;;;;;;9.50;99.90;;;;;;5006720;28;19925;-77
2023/03/11 14:46:15;;;;;;;;;;;9.40;99.90;;;;;;4983234;28;20024;-78